sensor_id;sensor_type;location;lat;lon;timestamp;temperature;humidity
12223;DHT22;6174;49.058;8.524;2023-09-08T05:02:44;17.60;99.90
12223;DHT22;6174;49.058;8.524;2023-09-08T06:00:38;17.80;99.90
12223;DHT22;6174;49.058;8.524;2023-09-08T06:09:50;17.90;99.90
12223;DHT22;6174;49.058;8.524;2023-09-08T06:15:32;17.80;99.90
12223;DHT22;6174;49.058;8.524;2023-09-08T06:21:18;17.80;99.90
12223;DHT22;6174;49.058;8.524;2023-09-08T06:24:41;17.80;99.90
12223;DHT22;6174;49.058;8.524;2023-09-08T06:27:07;17.90;99.90
12223;DHT22;6174;49.058;8.524;2023-09-08T06:29:44;18.20;99.90
12223;DHT22;6174;49.058;8.524;2023-09-08T06:32:31;18.50;99.90
12223;DHT22;6174;49.058;8.524;2023-09-08T06:35:37;19.00;99.90
12223;DHT22;6174;49.058;8.524;2023-09-08T06:44:54;19.30;99.90
12223;DHT22;6174;49.058;8.524;2023-09-08T06:47:55;19.60;99.90
12223;DHT22;6174;49.058;8.524;2023-09-08T06:57:59;20.10;99.90
12223;DHT22;6174;49.058;8.524;2023-09-08T07:00:26;20.20;99.90
12223;DHT22;6174;49.058;8.524;2023-09-08T07:03:08;20.30;99.90
12223;DHT22;6174;49.058;8.524;2023-09-08T07:07:42;20.30;99.90
12223;DHT22;6174;49.058;8.524;2023-09-08T07:08:49;20.20;99.90
12223;DHT22;6174;49.058;8.524;2023-09-08T07:11:21;20.00;99.90
12223;DHT22;6174;49.058;8.524;2023-09-08T07:13:48;19.90;99.90
12223;DHT22;6174;49.058;8.524;2023-09-08T07:16:18;19.70;99.90
12223;DHT22;6174;49.058;8.524;2023-09-08T07:18:45;19.50;99.90
12223;DHT22;6174;49.058;8.524;2023-09-08T07:21:12;19.50;99.90
12223;DHT22;6174;49.058;8.524;2023-09-08T07:23:39;19.50;99.90
12223;DHT22;6174;49.058;8.524;2023-09-08T07:26:06;19.50;99.90
12223;DHT22;6174;49.058;8.524;2023-09-08T07:28:33;19.50;99.90
12223;DHT22;6174;49.058;8.524;2023-09-08T07:31:02;19.60;99.90
12223;DHT22;6174;49.058;8.524;2023-09-08T07:33:31;19.70;99.90
12223;DHT22;6174;49.058;8.524;2023-09-08T07:35:58;19.70;99.90
12223;DHT22;6174;49.058;8.524;2023-09-08T07:38:29;19.80;99.90
12223;DHT22;6174;49.058;8.524;2023-09-08T07:40:56;19.80;99.90
12223;DHT22;6174;49.058;8.524;2023-09-08T07:43:25;19.80;99.90
12223;DHT22;6174;49.058;8.524;2023-09-08T07:45:52;19.90;99.90
12223;DHT22;6174;49.058;8.524;2023-09-08T07:48:18;19.90;99.90
12223;DHT22;6174;49.058;8.524;2023-09-08T07:50:50;20.00;99.90
12223;DHT22;6174;49.058;8.524;2023-09-08T07:53:17;20.00;99.90
12223;DHT22;6174;49.058;8.524;2023-09-08T07:55:44;20.10;99.90
12223;DHT22;6174;49.058;8.524;2023-09-08T07:58:10;20.10;99.90
12223;DHT22;6174;49.058;8.524;2023-09-08T08:00:37;20.20;99.90
12223;DHT22;6174;49.058;8.524;2023-09-08T08:03:04;20.30;99.90
12223;DHT22;6174;49.058;8.524;2023-09-08T08:05:31;20.30;99.90
12223;DHT22;6174;49.058;8.524;2023-09-08T08:08:00;20.30;99.90
12223;DHT22;6174;49.058;8.524;2023-09-08T08:10:26;20.50;99.90
12223;DHT22;6174;49.058;8.524;2023-09-08T08:12:53;20.50;99.90
12223;DHT22;6174;49.058;8.524;2023-09-08T08:15:20;20.60;99.90
12223;DHT22;6174;49.058;8.524;2023-09-08T08:17:47;20.70;99.90
12223;DHT22;6174;49.058;8.524;2023-09-08T08:20:14;20.70;99.90
12223;DHT22;6174;49.058;8.524;2023-09-08T08:22:43;20.80;99.90
12223;DHT22;6174;49.058;8.524;2023-09-08T08:25:12;20.90;99.90
12223;DHT22;6174;49.058;8.524;2023-09-08T08:27:39;21.00;99.90
12223;DHT22;6174;49.058;8.524;2023-09-08T08:30:07;21.10;99.90
12223;DHT22;6174;49.058;8.524;2023-09-08T08:32:34;21.10;99.90
12223;DHT22;6174;49.058;8.524;2023-09-08T08:35:01;21.20;99.90
12223;DHT22;6174;49.058;8.524;2023-09-08T08:37:30;21.20;99.90
12223;DHT22;6174;49.058;8.524;2023-09-08T08:39:57;21.40;99.90
12223;DHT22;6174;49.058;8.524;2023-09-08T08:42:31;21.40;99.90
12223;DHT22;6174;49.058;8.524;2023-09-08T08:44:58;21.60;99.90
12223;DHT22;6174;49.058;8.524;2023-09-08T08:47:26;21.70;99.90
12223;DHT22;6174;49.058;8.524;2023-09-08T08:49:55;21.70;99.90
12223;DHT22;6174;49.058;8.524;2023-09-08T08:52:23;21.70;99.90
12223;DHT22;6174;49.058;8.524;2023-09-08T08:54:50;21.70;99.90
12223;DHT22;6174;49.058;8.524;2023-09-08T08:57:17;21.70;99.90
12223;DHT22;6174;49.058;8.524;2023-09-08T08:59:49;21.70;99.90
12223;DHT22;6174;49.058;8.524;2023-09-08T09:02:18;21.80;99.90
12223;DHT22;6174;49.058;8.524;2023-09-08T09:04:45;21.90;99.90
12223;DHT22;6174;49.058;8.524;2023-09-08T09:07:13;21.90;99.90
12223;DHT22;6174;49.058;8.524;2023-09-08T09:09:40;21.90;99.90
12223;DHT22;6174;49.058;8.524;2023-09-08T09:12:07;22.10;99.90
12223;DHT22;6174;49.058;8.524;2023-09-08T09:14:34;22.20;99.90
12223;DHT22;6174;49.058;8.524;2023-09-08T09:17:03;22.40;99.90
12223;DHT22;6174;49.058;8.524;2023-09-08T09:19:30;22.40;99.90
12223;DHT22;6174;49.058;8.524;2023-09-08T09:21:59;22.50;99.90
12223;DHT22;6174;49.058;8.524;2023-09-08T09:24:31;22.60;99.90
12223;DHT22;6174;49.058;8.524;2023-09-08T09:26:58;22.70;99.90
12223;DHT22;6174;49.058;8.524;2023-09-08T09:29:26;22.70;99.90
12223;DHT22;6174;49.058;8.524;2023-09-08T09:31:54;22.80;99.90
12223;DHT22;6174;49.058;8.524;2023-09-08T09:34:23;22.80;99.90
12223;DHT22;6174;49.058;8.524;2023-09-08T09:36:50;22.90;99.90
12223;DHT22;6174;49.058;8.524;2023-09-08T09:39:18;22.90;99.90
12223;DHT22;6174;49.058;8.524;2023-09-08T09:41:45;22.90;99.90
12223;DHT22;6174;49.058;8.524;2023-09-08T09:44:12;23.00;99.90
12223;DHT22;6174;49.058;8.524;2023-09-08T09:46:42;23.10;99.90
12223;DHT22;6174;49.058;8.524;2023-09-08T09:49:10;23.10;99.90
12223;DHT22;6174;49.058;8.524;2023-09-08T09:51:42;23.20;99.90
12223;DHT22;6174;49.058;8.524;2023-09-08T09:54:09;23.30;99.90
12223;DHT22;6174;49.058;8.524;2023-09-08T09:56:38;23.30;99.90
12223;DHT22;6174;49.058;8.524;2023-09-08T09:59:07;23.30;99.90
12223;DHT22;6174;49.058;8.524;2023-09-08T10:01:35;23.50;99.90
12223;DHT22;6174;49.058;8.524;2023-09-08T10:04:02;23.50;99.90
12223;DHT22;6174;49.058;8.524;2023-09-08T10:06:31;23.40;99.90
12223;DHT22;6174;49.058;8.524;2023-09-08T10:09:00;23.50;99.90
12223;DHT22;6174;49.058;8.524;2023-09-08T10:11:32;23.50;99.90
12223;DHT22;6174;49.058;8.524;2023-09-08T10:14:01;23.70;99.90
12223;DHT22;6174;49.058;8.524;2023-09-08T10:16:32;23.70;99.90
12223;DHT22;6174;49.058;8.524;2023-09-08T10:19:01;23.80;99.90
12223;DHT22;6174;49.058;8.524;2023-09-08T10:21:33;23.80;99.90
12223;DHT22;6174;49.058;8.524;2023-09-08T10:24:09;23.80;99.90
12223;DHT22;6174;49.058;8.524;2023-09-08T10:26:43;23.90;99.90
12223;DHT22;6174;49.058;8.524;2023-09-08T10:29:10;23.90;99.90
12223;DHT22;6174;49.058;8.524;2023-09-08T10:31:37;24.00;99.90
12223;DHT22;6174;49.058;8.524;2023-09-08T10:34:04;24.20;99.90
12223;DHT22;6174;49.058;8.524;2023-09-08T10:36:32;24.20;99.90
12223;DHT22;6174;49.058;8.524;2023-09-08T10:39:28;24.20;99.90
12223;DHT22;6174;49.058;8.524;2023-09-08T10:42:23;24.20;99.90
12223;DHT22;6174;49.058;8.524;2023-09-08T10:44:57;24.30;99.90
12223;DHT22;6174;49.058;8.524;2023-09-08T10:47:25;24.40;99.90
12223;DHT22;6174;49.058;8.524;2023-09-08T10:49:52;24.60;99.90
12223;DHT22;6174;49.058;8.524;2023-09-08T10:52:24;24.70;99.90
12223;DHT22;6174;49.058;8.524;2023-09-08T10:54:53;24.70;99.90
12223;DHT22;6174;49.058;8.524;2023-09-08T10:57:21;24.70;99.90
12223;DHT22;6174;49.058;8.524;2023-09-08T10:59:52;24.70;99.90
12223;DHT22;6174;49.058;8.524;2023-09-08T11:02:35;24.70;99.90
12223;DHT22;6174;49.058;8.524;2023-09-08T11:05:04;24.70;99.90
12223;DHT22;6174;49.058;8.524;2023-09-08T11:07:33;24.80;99.90
12223;DHT22;6174;49.058;8.524;2023-09-08T11:10:01;24.90;99.90
12223;DHT22;6174;49.058;8.524;2023-09-08T11:12:28;25.00;99.90
12223;DHT22;6174;49.058;8.524;2023-09-08T11:14:55;25.10;99.90
12223;DHT22;6174;49.058;8.524;2023-09-08T11:17:25;25.10;99.90
12223;DHT22;6174;49.058;8.524;2023-09-08T11:19:52;25.20;99.90
12223;DHT22;6174;49.058;8.524;2023-09-08T11:22:22;25.30;99.90
12223;DHT22;6174;49.058;8.524;2023-09-08T11:24:49;25.40;99.90
12223;DHT22;6174;49.058;8.524;2023-09-08T11:27:18;25.40;99.90
12223;DHT22;6174;49.058;8.524;2023-09-08T11:29:45;25.30;99.90
12223;DHT22;6174;49.058;8.524;2023-09-08T11:32:12;25.40;99.90
12223;DHT22;6174;49.058;8.524;2023-09-08T11:34:39;25.50;99.90
12223;DHT22;6174;49.058;8.524;2023-09-08T11:37:08;25.60;99.90
12223;DHT22;6174;49.058;8.524;2023-09-08T11:39:37;25.70;99.90
12223;DHT22;6174;49.058;8.524;2023-09-08T11:42:04;25.70;99.90
12223;DHT22;6174;49.058;8.524;2023-09-08T11:44:33;25.70;99.90
12223;DHT22;6174;49.058;8.524;2023-09-08T11:47:01;25.90;98.90
12223;DHT22;6174;49.058;8.524;2023-09-08T11:49:33;26.00;98.20
12223;DHT22;6174;49.058;8.524;2023-09-08T11:52:00;25.90;99.00
12223;DHT22;6174;49.058;8.524;2023-09-08T11:54:28;25.90;99.80
12223;DHT22;6174;49.058;8.524;2023-09-08T11:56:55;25.90;99.90
12223;DHT22;6174;49.058;8.524;2023-09-08T11:59:22;26.00;99.50
12223;DHT22;6174;49.058;8.524;2023-09-08T12:01:51;26.10;99.20
12223;DHT22;6174;49.058;8.524;2023-09-08T12:04:18;26.10;98.90
12223;DHT22;6174;49.058;8.524;2023-09-08T12:06:49;26.20;98.50
12223;DHT22;6174;49.058;8.524;2023-09-08T12:09:16;26.20;98.70
12223;DHT22;6174;49.058;8.524;2023-09-08T12:11:43;26.20;98.40
12223;DHT22;6174;49.058;8.524;2023-09-08T12:14:11;26.20;98.30
12223;DHT22;6174;49.058;8.524;2023-09-08T12:16:39;26.30;98.00
12223;DHT22;6174;49.058;8.524;2023-09-08T12:19:08;26.30;98.40
12223;DHT22;6174;49.058;8.524;2023-09-08T12:21:53;26.40;98.80
12223;DHT22;6174;49.058;8.524;2023-09-08T12:24:20;26.40;98.40
12223;DHT22;6174;49.058;8.524;2023-09-08T12:27:07;26.50;97.20
12223;DHT22;6174;49.058;8.524;2023-09-08T12:29:33;26.50;97.90
12223;DHT22;6174;49.058;8.524;2023-09-08T12:32:01;26.60;97.20
12223;DHT22;6174;49.058;8.524;2023-09-08T12:34:29;26.60;96.70
12223;DHT22;6174;49.058;8.524;2023-09-08T12:36:56;26.70;96.90
12223;DHT22;6174;49.058;8.524;2023-09-08T12:39:23;26.70;97.30
12223;DHT22;6174;49.058;8.524;2023-09-08T12:41:50;26.70;97.50
12223;DHT22;6174;49.058;8.524;2023-09-08T12:44:17;26.80;97.10
12223;DHT22;6174;49.058;8.524;2023-09-08T12:46:43;26.70;97.00
12223;DHT22;6174;49.058;8.524;2023-09-08T12:49:10;26.80;96.20
12223;DHT22;6174;49.058;8.524;2023-09-08T12:51:38;26.80;96.50
12223;DHT22;6174;49.058;8.524;2023-09-08T12:54:05;26.80;96.50
12223;DHT22;6174;49.058;8.524;2023-09-08T12:56:32;26.90;96.70
12223;DHT22;6174;49.058;8.524;2023-09-08T12:58:59;26.90;96.20
12223;DHT22;6174;49.058;8.524;2023-09-08T13:01:26;27.00;95.80
12223;DHT22;6174;49.058;8.524;2023-09-08T13:03:53;27.00;95.30
12223;DHT22;6174;49.058;8.524;2023-09-08T13:06:20;27.00;95.90
12223;DHT22;6174;49.058;8.524;2023-09-08T13:08:48;27.20;96.40
12223;DHT22;6174;49.058;8.524;2023-09-08T13:11:14;27.20;96.20
12223;DHT22;6174;49.058;8.524;2023-09-08T13:13:41;27.10;95.50
12223;DHT22;6174;49.058;8.524;2023-09-08T13:16:08;27.20;95.40
12223;DHT22;6174;49.058;8.524;2023-09-08T13:18:35;27.20;95.60
12223;DHT22;6174;49.058;8.524;2023-09-08T13:21:04;27.20;95.70
12223;DHT22;6174;49.058;8.524;2023-09-08T13:23:31;27.20;95.80
12223;DHT22;6174;49.058;8.524;2023-09-08T13:25:59;27.30;95.90
12223;DHT22;6174;49.058;8.524;2023-09-08T13:28:26;27.20;95.40
12223;DHT22;6174;49.058;8.524;2023-09-08T13:30:52;27.20;95.50
12223;DHT22;6174;49.058;8.524;2023-09-08T13:33:19;27.30;96.10
12223;DHT22;6174;49.058;8.524;2023-09-08T13:35:46;27.20;95.80
12223;DHT22;6174;49.058;8.524;2023-09-08T13:38:13;27.20;95.80
12223;DHT22;6174;49.058;8.524;2023-09-08T13:40:39;27.30;96.10
12223;DHT22;6174;49.058;8.524;2023-09-08T13:43:08;27.50;94.10
12223;DHT22;6174;49.058;8.524;2023-09-08T13:45:36;27.50;94.30
12223;DHT22;6174;49.058;8.524;2023-09-08T13:48:04;27.50;94.60
12223;DHT22;6174;49.058;8.524;2023-09-08T13:50:31;27.50;95.10
12223;DHT22;6174;49.058;8.524;2023-09-08T13:52:58;27.40;94.60
12223;DHT22;6174;49.058;8.524;2023-09-08T13:55:25;27.50;94.40
12223;DHT22;6174;49.058;8.524;2023-09-08T13:57:52;27.50;93.60
12223;DHT22;6174;49.058;8.524;2023-09-08T14:00:20;27.60;94.50
12223;DHT22;6174;49.058;8.524;2023-09-08T14:02:47;27.50;94.60
12223;DHT22;6174;49.058;8.524;2023-09-08T14:05:14;27.50;94.50
12223;DHT22;6174;49.058;8.524;2023-09-08T14:07:40;27.50;94.70
12223;DHT22;6174;49.058;8.524;2023-09-08T14:10:07;27.50;94.80
12223;DHT22;6174;49.058;8.524;2023-09-08T14:12:35;27.40;94.40
12223;DHT22;6174;49.058;8.524;2023-09-08T14:15:02;27.40;95.10
12223;DHT22;6174;49.058;8.524;2023-09-08T14:17:30;27.50;92.60
12223;DHT22;6174;49.058;8.524;2023-09-08T14:19:57;27.60;93.40
12223;DHT22;6174;49.058;8.524;2023-09-08T14:22:23;27.60;93.20
12223;DHT22;6174;49.058;8.524;2023-09-08T14:24:52;27.70;93.40
12223;DHT22;6174;49.058;8.524;2023-09-08T14:27:18;27.70;92.80
12223;DHT22;6174;49.058;8.524;2023-09-08T14:29:45;27.70;93.30
12223;DHT22;6174;49.058;8.524;2023-09-08T14:32:12;27.70;93.10
12223;DHT22;6174;49.058;8.524;2023-09-08T14:34:40;27.70;92.70
12223;DHT22;6174;49.058;8.524;2023-09-08T14:37:07;27.70;92.50
12223;DHT22;6174;49.058;8.524;2023-09-08T14:39:34;27.70;93.10
12223;DHT22;6174;49.058;8.524;2023-09-08T14:42:01;27.70;93.00
12223;DHT22;6174;49.058;8.524;2023-09-08T14:44:27;27.80;91.70
12223;DHT22;6174;49.058;8.524;2023-09-08T14:46:54;27.80;92.60
12223;DHT22;6174;49.058;8.524;2023-09-08T14:49:21;27.80;92.20
12223;DHT22;6174;49.058;8.524;2023-09-08T14:51:49;27.70;92.50
12223;DHT22;6174;49.058;8.524;2023-09-08T14:54:16;27.60;92.50
12223;DHT22;6174;49.058;8.524;2023-09-08T14:56:43;27.60;92.60
12223;DHT22;6174;49.058;8.524;2023-09-08T14:59:10;27.50;92.90
12223;DHT22;6174;49.058;8.524;2023-09-08T15:01:36;27.40;93.20
12223;DHT22;6174;49.058;8.524;2023-09-08T15:04:06;27.30;93.50
12223;DHT22;6174;49.058;8.524;2023-09-08T15:06:32;27.20;93.40
12223;DHT22;6174;49.058;8.524;2023-09-08T15:09:01;27.20;93.70
12223;DHT22;6174;49.058;8.524;2023-09-08T15:11:27;27.20;94.00
12223;DHT22;6174;49.058;8.524;2023-09-08T15:13:54;27.20;93.40
12223;DHT22;6174;49.058;8.524;2023-09-08T15:16:21;27.20;93.50
12223;DHT22;6174;49.058;8.524;2023-09-08T15:18:48;27.10;93.40
12223;DHT22;6174;49.058;8.524;2023-09-08T15:21:16;27.00;93.10
12223;DHT22;6174;49.058;8.524;2023-09-08T15:23:44;27.00;93.00
12223;DHT22;6174;49.058;8.524;2023-09-08T15:26:12;26.90;93.50
12223;DHT22;6174;49.058;8.524;2023-09-08T15:28:39;26.90;93.90
12223;DHT22;6174;49.058;8.524;2023-09-08T15:31:05;26.90;93.70
12223;DHT22;6174;49.058;8.524;2023-09-08T15:33:32;26.90;93.30
12223;DHT22;6174;49.058;8.524;2023-09-08T15:35:59;26.80;93.40
12223;DHT22;6174;49.058;8.524;2023-09-08T15:38:25;26.80;93.50
12223;DHT22;6174;49.058;8.524;2023-09-08T15:41:14;26.80;93.20
12223;DHT22;6174;49.058;8.524;2023-09-08T15:43:47;26.80;93.50
12223;DHT22;6174;49.058;8.524;2023-09-08T15:46:14;26.80;93.80
12223;DHT22;6174;49.058;8.524;2023-09-08T15:48:41;26.80;93.50
12223;DHT22;6174;49.058;8.524;2023-09-08T15:51:08;26.70;93.10
12223;DHT22;6174;49.058;8.524;2023-09-08T15:53:35;26.70;93.10
12223;DHT22;6174;49.058;8.524;2023-09-08T15:56:02;26.70;93.30
12223;DHT22;6174;49.058;8.524;2023-09-08T15:58:30;26.60;93.20
12223;DHT22;6174;49.058;8.524;2023-09-08T16:00:57;26.60;93.10
12223;DHT22;6174;49.058;8.524;2023-09-08T16:03:24;26.60;93.00
12223;DHT22;6174;49.058;8.524;2023-09-08T16:05:50;26.60;92.70
12223;DHT22;6174;49.058;8.524;2023-09-08T16:08:17;26.60;92.20
12223;DHT22;6174;49.058;8.524;2023-09-08T16:10:45;26.50;92.70
12223;DHT22;6174;49.058;8.524;2023-09-08T16:13:12;26.50;92.90
12223;DHT22;6174;49.058;8.524;2023-09-08T16:15:40;26.60;93.10
12223;DHT22;6174;49.058;8.524;2023-09-08T16:18:08;26.40;92.70
12223;DHT22;6174;49.058;8.524;2023-09-08T16:20:36;26.40;93.00
12223;DHT22;6174;49.058;8.524;2023-09-08T16:23:03;26.40;93.10
12223;DHT22;6174;49.058;8.524;2023-09-08T16:25:30;26.40;93.10
12223;DHT22;6174;49.058;8.524;2023-09-08T16:27:57;26.30;93.10
12223;DHT22;6174;49.058;8.524;2023-09-08T16:30:24;26.30;93.10
12223;DHT22;6174;49.058;8.524;2023-09-08T16:32:52;26.40;93.20
12223;DHT22;6174;49.058;8.524;2023-09-08T16:35:19;26.30;93.00
12223;DHT22;6174;49.058;8.524;2023-09-08T16:37:46;26.30;93.20
12223;DHT22;6174;49.058;8.524;2023-09-08T16:40:13;26.20;93.30
12223;DHT22;6174;49.058;8.524;2023-09-08T16:42:39;26.20;93.20
12223;DHT22;6174;49.058;8.524;2023-09-08T16:45:07;26.20;93.20
12223;DHT22;6174;49.058;8.524;2023-09-08T16:47:34;26.20;93.50
12223;DHT22;6174;49.058;8.524;2023-09-08T16:50:03;26.10;93.50
12223;DHT22;6174;49.058;8.524;2023-09-08T16:52:30;26.10;93.50
12223;DHT22;6174;49.058;8.524;2023-09-08T16:54:57;26.10;93.50
12223;DHT22;6174;49.058;8.524;2023-09-08T16:57:24;26.10;93.40
12223;DHT22;6174;49.058;8.524;2023-09-08T16:59:50;26.10;93.50
12223;DHT22;6174;49.058;8.524;2023-09-08T17:02:17;26.00;93.50
12223;DHT22;6174;49.058;8.524;2023-09-08T17:04:44;26.00;93.50
12223;DHT22;6174;49.058;8.524;2023-09-08T17:07:12;26.00;93.40
12223;DHT22;6174;49.058;8.524;2023-09-08T17:09:40;26.00;93.40
12223;DHT22;6174;49.058;8.524;2023-09-08T17:12:07;25.90;93.60
12223;DHT22;6174;49.058;8.524;2023-09-08T17:14:35;25.80;94.20
12223;DHT22;6174;49.058;8.524;2023-09-08T17:17:02;25.80;94.80
12223;DHT22;6174;49.058;8.524;2023-09-08T17:19:29;25.80;95.30
12223;DHT22;6174;49.058;8.524;2023-09-08T17:21:55;25.80;95.50
12223;DHT22;6174;49.058;8.524;2023-09-08T17:24:24;25.80;95.60
12223;DHT22;6174;49.058;8.524;2023-09-08T17:26:51;25.80;95.80
12223;DHT22;6174;49.058;8.524;2023-09-08T17:29:18;25.70;96.30
12223;DHT22;6174;49.058;8.524;2023-09-08T17:31:45;25.60;96.60
12223;DHT22;6174;49.058;8.524;2023-09-08T17:34:17;25.60;97.10
12223;DHT22;6174;49.058;8.524;2023-09-08T17:36:44;25.60;97.60
12223;DHT22;6174;49.058;8.524;2023-09-08T17:39:11;25.50;98.50
12223;DHT22;6174;49.058;8.524;2023-09-08T17:41:39;25.40;98.90
12223;DHT22;6174;49.058;8.524;2023-09-08T17:44:06;25.40;99.60
12223;DHT22;6174;49.058;8.524;2023-09-08T17:46:33;25.30;99.90
12223;DHT22;6174;49.058;8.524;2023-09-08T17:49:01;25.20;99.90
12223;DHT22;6174;49.058;8.524;2023-09-08T17:51:27;25.10;99.90
12223;DHT22;6174;49.058;8.524;2023-09-08T17:53:54;25.10;99.90
12223;DHT22;6174;49.058;8.524;2023-09-08T17:56:21;25.00;99.90
12223;DHT22;6174;49.058;8.524;2023-09-08T17:58:49;24.90;99.90
12223;DHT22;6174;49.058;8.524;2023-09-08T18:01:16;24.80;99.90
12223;DHT22;6174;49.058;8.524;2023-09-08T18:03:45;24.80;99.90
12223;DHT22;6174;49.058;8.524;2023-09-08T18:06:12;24.70;99.90
12223;DHT22;6174;49.058;8.524;2023-09-08T18:08:39;24.60;99.90
12223;DHT22;6174;49.058;8.524;2023-09-08T18:11:06;24.50;99.90
12223;DHT22;6174;49.058;8.524;2023-09-08T18:13:33;24.50;99.90
12223;DHT22;6174;49.058;8.524;2023-09-08T18:16:03;24.40;99.90
12223;DHT22;6174;49.058;8.524;2023-09-08T18:43:03;23.60;99.90
12223;DHT22;6174;49.058;8.524;2023-09-08T18:45:50;23.50;99.90
12223;DHT22;6174;49.058;8.524;2023-09-08T18:48:50;23.40;99.90
12223;DHT22;6174;49.058;8.524;2023-09-08T18:51:40;23.30;99.90
12223;DHT22;6174;49.058;8.524;2023-09-08T18:54:48;23.20;99.90
12223;DHT22;6174;49.058;8.524;2023-09-08T19:04:19;23.10;99.90
12223;DHT22;6174;49.058;8.524;2023-09-08T19:07:01;23.10;99.90
12223;DHT22;6174;49.058;8.524;2023-09-08T19:09:41;23.00;99.90
12223;DHT22;6174;49.058;8.524;2023-09-08T19:12:47;22.90;99.90
12223;DHT22;6174;49.058;8.524;2023-09-08T19:16:47;22.80;99.90
12223;DHT22;6174;49.058;8.524;2023-09-08T19:20:07;22.80;99.90
12223;DHT22;6174;49.058;8.524;2023-09-08T19:22:43;22.70;99.90
12223;DHT22;6174;49.058;8.524;2023-09-08T19:25:53;22.60;99.90
12223;DHT22;6174;49.058;8.524;2023-09-08T19:31:42;22.50;99.90
12223;DHT22;6174;49.058;8.524;2023-09-08T19:34:16;22.50;99.90
12223;DHT22;6174;49.058;8.524;2023-09-08T19:42:43;22.50;99.90
12223;DHT22;6174;49.058;8.524;2023-09-08T19:45:10;22.50;99.90
12223;DHT22;6174;49.058;8.524;2023-09-08T19:47:37;22.50;99.90
12223;DHT22;6174;49.058;8.524;2023-09-08T19:50:04;22.50;99.90
12223;DHT22;6174;49.058;8.524;2023-09-08T19:52:32;22.40;99.90
12223;DHT22;6174;49.058;8.524;2023-09-08T20:07:51;22.20;99.90
12223;DHT22;6174;49.058;8.524;2023-09-08T20:10:18;22.10;99.90
12223;DHT22;6174;49.058;8.524;2023-09-08T20:12:45;22.00;99.90
12223;DHT22;6174;49.058;8.524;2023-09-08T20:15:12;22.00;99.90
12223;DHT22;6174;49.058;8.524;2023-09-08T20:17:39;22.10;99.90
12223;DHT22;6174;49.058;8.524;2023-09-08T20:20:09;22.10;99.90
12223;DHT22;6174;49.058;8.524;2023-09-08T20:22:36;22.10;99.90
12223;DHT22;6174;49.058;8.524;2023-09-08T20:25:05;22.10;99.90
12223;DHT22;6174;49.058;8.524;2023-09-08T20:27:31;22.20;99.90
12223;DHT22;6174;49.058;8.524;2023-09-08T20:29:58;22.20;99.90
12223;DHT22;6174;49.058;8.524;2023-09-08T20:32:26;22.20;99.90
12223;DHT22;6174;49.058;8.524;2023-09-08T20:34:52;22.20;99.90
12223;DHT22;6174;49.058;8.524;2023-09-08T20:37:19;22.20;99.90
12223;DHT22;6174;49.058;8.524;2023-09-08T20:39:46;22.10;99.90
12223;DHT22;6174;49.058;8.524;2023-09-08T20:42:14;22.20;99.90
12223;DHT22;6174;49.058;8.524;2023-09-08T20:44:41;22.00;99.90
12223;DHT22;6174;49.058;8.524;2023-09-08T20:47:08;22.00;99.90
12223;DHT22;6174;49.058;8.524;2023-09-08T20:49:36;22.00;99.90
12223;DHT22;6174;49.058;8.524;2023-09-08T20:52:04;22.00;99.90
12223;DHT22;6174;49.058;8.524;2023-09-08T20:54:31;22.10;99.90
12223;DHT22;6174;49.058;8.524;2023-09-08T20:56:58;22.10;99.90
12223;DHT22;6174;49.058;8.524;2023-09-08T20:59:26;22.10;99.90
12223;DHT22;6174;49.058;8.524;2023-09-08T21:01:53;22.10;99.90
12223;DHT22;6174;49.058;8.524;2023-09-08T21:04:20;22.10;99.90
12223;DHT22;6174;49.058;8.524;2023-09-08T21:47:26;21.60;99.90
12223;DHT22;6174;49.058;8.524;2023-09-08T21:50:14;21.60;99.90
12223;DHT22;6174;49.058;8.524;2023-09-08T21:53:37;21.60;99.90
12223;DHT22;6174;49.058;8.524;2023-09-08T21:56:18;21.60;99.90
12223;DHT22;6174;49.058;8.524;2023-09-08T21:59:05;21.60;99.90
